createdAt,value
2022-08-25T00:00:18.070Z,0.0
2022-08-25T00:02:18.195Z,0.0
2022-08-25T00:04:18.064Z,0.0
2022-08-25T00:06:18.090Z,0.0
2022-08-25T00:08:18.085Z,0.0
2022-08-25T00:10:18.095Z,0.0
2022-08-25T00:12:18.127Z,0.0
2022-08-25T00:14:18.094Z,0.0
2022-08-25T00:16:18.124Z,0.0
2022-08-25T00:18:19.654Z,0.0
2022-08-25T00:20:18.090Z,0.0
2022-08-25T00:22:18.111Z,0.0
2022-08-25T00:24:18.089Z,0.0
2022-08-25T00:26:18.114Z,0.0
2022-08-25T00:28:18.119Z,0.0
2022-08-25T00:30:18.100Z,0.0
2022-08-25T00:32:18.132Z,0.0
2022-08-25T00:34:18.103Z,0.0
2022-08-25T00:36:18.100Z,0.0
2022-08-25T00:38:18.126Z,0.0
2022-08-25T00:40:18.226Z,0.0
2022-08-25T00:42:18.131Z,0.0
2022-08-25T00:44:18.146Z,0.0
2022-08-25T00:46:18.204Z,0.0
2022-08-25T00:48:18.157Z,0.0
2022-08-25T00:50:18.126Z,0.0
2022-08-25T00:52:18.146Z,0.0
2022-08-25T00:54:18.169Z,0.0
2022-08-25T00:56:18.139Z,0.0
2022-08-25T00:58:18.176Z,0.0
2022-08-25T01:00:18.161Z,0.0
2022-08-25T01:02:18.184Z,0.0
2022-08-25T01:04:18.101Z,0.0
2022-08-25T01:06:18.129Z,0.0
2022-08-25T01:08:18.120Z,0.0
2022-08-25T01:10:18.098Z,0.0
2022-08-25T01:12:18.123Z,0.0
2022-08-25T01:14:18.136Z,0.0
2022-08-25T01:16:18.109Z,0.0
2022-08-25T01:18:18.114Z,0.0
2022-08-25T01:20:18.137Z,0.0
2022-08-25T01:22:18.125Z,0.0
2022-08-25T01:24:18.150Z,0.0
2022-08-25T01:26:18.117Z,0.0
2022-08-25T01:28:18.147Z,0.0
2022-08-25T01:30:18.164Z,0.0
2022-08-25T01:32:18.139Z,0.0
2022-08-25T01:34:18.195Z,0.0
2022-08-25T01:36:18.453Z,0.0
2022-08-25T01:38:18.198Z,0.0
2022-08-25T01:40:18.232Z,0.0
2022-08-25T01:42:18.139Z,0.0
2022-08-25T01:44:18.123Z,0.0
2022-08-25T01:46:18.213Z,0.0
2022-08-25T01:48:18.163Z,0.0
2022-08-25T01:50:18.175Z,0.0
2022-08-25T01:52:18.173Z,0.0
2022-08-25T01:54:18.180Z,0.0
2022-08-25T01:56:18.130Z,0.0
2022-08-25T01:58:18.182Z,0.0
2022-08-25T02:00:18.148Z,0.0
2022-08-25T02:02:18.420Z,0.0
2022-08-25T02:04:18.148Z,0.0
2022-08-25T02:06:18.313Z,0.0
2022-08-25T02:08:18.142Z,0.0
2022-08-25T02:10:18.190Z,0.0
2022-08-25T02:12:18.172Z,0.0
2022-08-25T02:14:18.172Z,0.0
2022-08-25T02:16:18.287Z,0.0
2022-08-25T02:18:18.191Z,0.0
2022-08-25T02:20:18.296Z,0.0
2022-08-25T02:22:18.184Z,0.0
2022-08-25T02:24:18.174Z,0.0
2022-08-25T02:26:18.201Z,0.0
2022-08-25T02:28:18.202Z,0.0
2022-08-25T02:30:18.221Z,0.0
2022-08-25T02:32:18.202Z,0.0
2022-08-25T02:34:18.216Z,0.0
2022-08-25T02:36:18.226Z,0.0
2022-08-25T02:38:18.260Z,0.0
2022-08-25T02:40:18.307Z,0.0
2022-08-25T02:42:18.217Z,0.0
2022-08-25T02:44:18.225Z,0.0
2022-08-25T02:46:18.240Z,0.0
2022-08-25T02:48:18.238Z,0.0
2022-08-25T02:50:18.220Z,0.0
2022-08-25T02:52:18.240Z,0.0
2022-08-25T02:54:18.224Z,0.0
2022-08-25T02:56:18.262Z,0.0
2022-08-25T02:58:18.281Z,0.0
2022-08-25T03:00:18.310Z,0.0
2022-08-25T03:02:18.245Z,0.0
2022-08-25T03:04:18.259Z,0.0
2022-08-25T03:06:18.234Z,0.0
2022-08-25T03:08:18.230Z,0.0
2022-08-25T03:10:18.229Z,0.0
2022-08-25T03:12:18.221Z,0.0
2022-08-25T03:14:18.245Z,0.0
2022-08-25T03:16:18.293Z,0.0
2022-08-25T03:18:18.339Z,0.0
2022-08-25T03:20:18.259Z,0.0
2022-08-25T03:22:18.245Z,0.0
2022-08-25T03:24:18.261Z,0.0
2022-08-25T03:26:18.245Z,0.0
2022-08-25T03:28:18.274Z,0.0
2022-08-25T03:30:18.246Z,0.0
2022-08-25T03:32:18.653Z,0.0
2022-08-25T03:34:18.570Z,0.0
2022-08-25T03:36:18.656Z,0.0
2022-08-25T03:38:18.614Z,0.0
2022-08-25T03:40:18.807Z,0.0
2022-08-25T03:42:18.668Z,0.0
2022-08-25T03:44:18.682Z,0.0
2022-08-25T03:46:18.662Z,0.0
2022-08-25T03:48:18.646Z,0.0
2022-08-25T03:50:18.649Z,0.0
2022-08-25T03:52:18.677Z,0.0
2022-08-25T03:54:18.636Z,0.0
2022-08-25T03:56:18.703Z,0.0
2022-08-25T03:58:18.734Z,0.0
2022-08-25T04:00:18.614Z,0.0
2022-08-25T04:02:18.773Z,0.0
2022-08-25T04:04:18.708Z,0.0
2022-08-25T04:06:18.392Z,0.0
2022-08-25T04:08:18.324Z,0.0
2022-08-25T04:10:18.306Z,0.0
2022-08-25T04:12:18.389Z,0.0
2022-08-25T04:14:18.319Z,0.0
2022-08-25T04:16:18.405Z,0.0
2022-08-25T04:18:18.317Z,0.0
2022-08-25T04:20:18.341Z,0.0
2022-08-25T04:22:18.322Z,0.0
2022-08-25T04:24:18.322Z,0.0
2022-08-25T04:26:18.323Z,0.0
2022-08-25T04:28:18.330Z,0.0
2022-08-25T04:30:18.359Z,0.0
2022-08-25T04:32:18.393Z,0.0
2022-08-25T04:34:29.820Z,0.0
2022-08-25T04:36:18.333Z,0.0
2022-08-25T04:38:18.347Z,0.0
2022-08-25T04:40:18.410Z,0.0
2022-08-25T04:42:18.359Z,0.0
2022-08-25T04:44:18.358Z,0.0
2022-08-25T04:46:20.610Z,0.0
2022-08-25T04:48:18.323Z,0.0
2022-08-25T04:50:18.336Z,0.0
2022-08-25T04:52:18.350Z,0.0
2022-08-25T04:54:18.348Z,0.0
2022-08-25T04:56:18.464Z,0.0
2022-08-25T04:58:18.367Z,0.0
2022-08-25T05:00:18.369Z,1.6
2022-08-25T05:02:18.366Z,1.6
2022-08-25T05:04:28.370Z,1.6
2022-08-25T05:06:18.344Z,1.6
2022-08-25T05:08:18.362Z,0.0
2022-08-25T05:10:18.396Z,0.0
2022-08-25T05:12:18.491Z,0.0
2022-08-25T05:14:18.355Z,0.0
2022-08-25T05:16:18.405Z,0.0
2022-08-25T05:18:23.376Z,0.0
2022-08-25T05:20:18.401Z,0.0
2022-08-25T05:22:18.382Z,0.0
2022-08-25T05:24:18.380Z,0.0
2022-08-25T05:26:20.413Z,0.0
2022-08-25T05:28:18.383Z,0.0
2022-08-25T05:30:18.369Z,1.6
2022-08-25T05:32:18.402Z,1.6
2022-08-25T05:34:18.640Z,1.6
2022-08-25T05:36:18.391Z,3.2
2022-08-25T05:38:18.408Z,3.2
2022-08-25T05:40:18.481Z,3.2
2022-08-25T05:42:18.454Z,0.0
2022-08-25T05:44:21.184Z,0.0
2022-08-25T05:46:18.476Z,0.0
2022-08-25T05:48:18.377Z,1.6
2022-08-25T05:50:18.364Z,3.2
2022-08-25T05:52:20.248Z,3.2
2022-08-25T05:54:18.457Z,3.2
2022-08-25T05:56:18.445Z,0.0
2022-08-25T05:58:18.420Z,0.0
2022-08-25T06:00:18.471Z,0.0
2022-08-25T06:02:18.380Z,0.0
2022-08-25T06:04:18.557Z,0.0
2022-08-25T06:06:18.390Z,0.0
2022-08-25T06:08:18.422Z,0.0
2022-08-25T06:10:18.383Z,0.0
2022-08-25T06:12:18.404Z,1.6
2022-08-25T06:14:18.426Z,3.2
2022-08-25T06:16:18.484Z,3.2
2022-08-25T06:18:18.481Z,3.2
2022-08-25T06:20:18.629Z,0.0
2022-08-25T06:22:18.413Z,1.6
2022-08-25T06:24:18.415Z,1.6
2022-08-25T06:26:21.068Z,1.6
2022-08-25T06:28:18.439Z,3.2
2022-08-25T06:30:24.066Z,3.2
2022-08-25T06:32:18.461Z,3.2
2022-08-25T06:34:18.425Z,3.2
2022-08-25T06:36:18.538Z,1.6
2022-08-25T06:38:18.449Z,1.6
2022-08-25T06:40:18.629Z,1.6
2022-08-25T06:42:18.665Z,4.8
2022-08-25T06:44:18.811Z,4.8
2022-08-25T06:46:18.825Z,4.8
2022-08-25T06:48:18.469Z,4.8
2022-08-25T06:50:18.443Z,3.2
2022-08-25T06:52:18.523Z,4.8
2022-08-25T06:54:18.460Z,4.8
2022-08-25T06:56:18.460Z,3.2
2022-08-25T06:58:18.467Z,3.2
2022-08-25T07:00:18.712Z,3.2
2022-08-25T07:02:22.294Z,3.2
2022-08-25T07:04:18.756Z,3.2
2022-08-25T07:06:18.847Z,3.2
2022-08-25T07:08:18.472Z,3.2
2022-08-25T07:10:19.399Z,1.6
2022-08-25T07:12:18.478Z,4.8
2022-08-25T07:14:18.469Z,4.8
2022-08-25T07:16:18.539Z,4.8
2022-08-25T07:18:18.524Z,6.4
2022-08-25T07:20:19.210Z,6.4
2022-08-25T07:22:18.489Z,3.2
2022-08-25T07:24:18.462Z,4.8
2022-08-25T07:26:36.914Z,8.0
2022-08-25T07:28:18.553Z,8.0
2022-08-25T07:30:18.490Z,8.0
2022-08-25T07:32:18.495Z,3.2
2022-08-25T07:34:18.476Z,6.4
2022-08-25T07:36:18.495Z,6.4
2022-08-25T07:38:20.757Z,6.4
2022-08-25T07:40:18.573Z,3.2
2022-08-25T07:42:18.470Z,6.4
2022-08-25T07:44:18.492Z,6.4
2022-08-25T07:46:18.513Z,6.4
2022-08-25T07:48:18.499Z,6.4
2022-08-25T07:50:18.499Z,4.8
2022-08-25T07:52:18.496Z,4.8
2022-08-25T07:54:18.489Z,6.4
2022-08-25T07:56:18.526Z,6.4
2022-08-25T07:58:18.512Z,3.2
2022-08-25T08:00:18.493Z,6.4
2022-08-25T08:02:19.474Z,6.4
2022-08-25T08:04:18.516Z,6.4
2022-08-25T08:06:18.495Z,4.8
2022-08-25T08:08:19.034Z,4.8
2022-08-25T08:10:54.056Z,8.0
2022-08-25T08:12:18.502Z,8.0
2022-08-25T08:14:18.507Z,4.8
2022-08-25T08:16:18.653Z,8.0
2022-08-25T08:18:18.580Z,8.0
2022-08-25T08:20:18.682Z,8.0
2022-08-25T08:22:18.547Z,8.0
2022-08-25T08:24:40.564Z,4.8
2022-08-25T08:26:19.196Z,4.8
2022-08-25T08:28:18.535Z,4.8
2022-08-25T08:30:18.536Z,6.4
2022-08-25T08:32:18.692Z,6.4
2022-08-25T08:34:18.529Z,6.4
2022-08-25T08:36:18.562Z,6.4
2022-08-25T08:38:22.110Z,6.4
2022-08-25T08:40:18.732Z,4.8
2022-08-25T08:42:18.759Z,4.8
2022-08-25T08:44:18.538Z,8.0
2022-08-25T08:46:18.653Z,8.0
2022-08-25T08:48:18.583Z,8.0
2022-08-25T08:50:23.151Z,11.3
2022-08-25T08:52:18.555Z,11.3
2022-08-25T08:54:18.626Z,11.3
2022-08-25T08:56:18.572Z,11.3
2022-08-25T08:58:18.562Z,11.3
2022-08-25T09:00:18.567Z,11.3
2022-08-25T09:02:38.761Z,9.7
2022-08-25T09:04:18.623Z,6.4
2022-08-25T09:06:18.580Z,6.4
2022-08-25T09:08:20.169Z,6.4
2022-08-25T09:10:18.790Z,8.0
2022-08-25T09:12:18.586Z,8.0
2022-08-25T09:14:18.607Z,8.0
2022-08-25T09:16:23.320Z,8.0
2022-08-25T09:18:18.591Z,8.0
2022-08-25T09:20:19.450Z,8.0
2022-08-25T09:22:35.255Z,8.0
2022-08-25T09:24:18.666Z,8.0
2022-08-25T09:26:18.600Z,12.9
2022-08-25T09:28:18.618Z,12.9
2022-08-25T09:30:18.586Z,12.9
2022-08-25T09:32:24.096Z,8.0
2022-08-25T09:34:18.619Z,11.3
2022-08-25T09:36:18.629Z,11.3
2022-08-25T09:38:18.689Z,11.3
2022-08-25T09:40:18.690Z,9.7
2022-08-25T09:42:23.289Z,9.7
2022-08-25T09:44:18.619Z,9.7
2022-08-25T09:46:18.730Z,11.3
2022-08-25T09:48:18.661Z,11.3
2022-08-25T09:50:18.783Z,11.3
2022-08-25T09:52:18.648Z,12.9
2022-08-25T09:54:18.689Z,12.9
2022-08-25T09:56:18.726Z,12.9
2022-08-25T09:58:18.622Z,12.9
2022-08-25T10:00:18.663Z,12.9
2022-08-25T10:02:18.617Z,12.9
2022-08-25T10:04:20.864Z,9.7
2022-08-25T10:06:18.758Z,9.7
2022-08-25T10:08:18.705Z,11.3
2022-08-25T10:10:18.636Z,12.9
2022-08-25T10:12:18.670Z,12.9
2022-08-25T10:14:18.661Z,8.0
2022-08-25T10:16:24.100Z,14.5
2022-08-25T10:18:18.822Z,14.5
2022-08-25T10:20:18.666Z,14.5
2022-08-25T10:22:18.662Z,14.5
2022-08-25T10:24:18.660Z,14.5
2022-08-25T10:26:18.685Z,14.5
2022-08-25T10:28:18.683Z,12.9
2022-08-25T10:30:18.695Z,12.9
2022-08-25T10:32:18.667Z,9.7
2022-08-25T10:34:18.717Z,9.7
2022-08-25T10:36:20.288Z,9.7
2022-08-25T10:38:21.611Z,9.7
2022-08-25T10:40:18.748Z,11.3
2022-08-25T10:42:18.700Z,11.3
2022-08-25T10:44:18.802Z,11.3
2022-08-25T10:46:19.050Z,11.3
2022-08-25T10:48:18.690Z,11.3
2022-08-25T10:50:18.819Z,9.7
2022-08-25T10:52:18.709Z,11.3
2022-08-25T10:54:18.699Z,11.3
2022-08-25T10:56:18.721Z,9.7
2022-08-25T10:58:18.699Z,9.7
2022-08-25T11:00:18.729Z,9.7
2022-08-25T11:02:19.891Z,9.7
2022-08-25T11:04:18.726Z,14.5
2022-08-25T11:06:18.723Z,14.5
2022-08-25T11:08:18.734Z,14.5
2022-08-25T11:10:18.708Z,12.9
2022-08-25T11:12:18.717Z,12.9
2022-08-25T11:14:18.722Z,11.3
2022-08-25T11:16:19.564Z,11.3
2022-08-25T11:18:18.735Z,11.3
2022-08-25T11:20:26.626Z,14.5
2022-08-25T11:22:19.261Z,14.5
2022-08-25T11:24:18.750Z,14.5
2022-08-25T11:26:18.750Z,11.3
2022-08-25T11:28:18.752Z,12.9
2022-08-25T11:30:18.902Z,12.9
2022-08-25T11:32:18.752Z,12.9
2022-08-25T11:34:19.531Z,12.9
2022-08-25T11:36:18.767Z,14.5
2022-08-25T11:38:18.768Z,16.1
2022-08-25T11:40:18.891Z,16.1
2022-08-25T11:42:18.751Z,16.1
2022-08-25T11:44:18.758Z,8.0
2022-08-25T11:46:18.796Z,12.9
2022-08-25T11:48:18.778Z,12.9
2022-08-25T11:50:18.758Z,9.7
2022-08-25T11:52:18.762Z,11.3
2022-08-25T11:54:18.770Z,11.3
2022-08-25T11:56:18.770Z,14.5
2022-08-25T11:58:18.731Z,14.5
2022-08-25T12:00:18.774Z,14.5
2022-08-25T12:02:18.730Z,17.7
2022-08-25T12:04:18.787Z,17.7
2022-08-25T12:06:18.746Z,17.7
2022-08-25T12:08:18.738Z,11.3
2022-08-25T12:10:18.767Z,11.3
2022-08-25T12:12:18.710Z,11.3
2022-08-25T12:14:18.743Z,11.3
2022-08-25T12:16:18.808Z,11.3
2022-08-25T12:18:18.948Z,12.9
2022-08-25T12:20:18.745Z,12.9
2022-08-25T12:22:18.782Z,12.9
2022-08-25T12:24:18.761Z,12.9
2022-08-25T12:26:18.763Z,12.9
2022-08-25T12:28:19.492Z,11.3
2022-08-25T12:30:21.073Z,11.3
2022-08-25T12:32:18.743Z,11.3
2022-08-25T12:34:18.744Z,11.3
2022-08-25T12:36:18.773Z,9.7
2022-08-25T12:38:18.772Z,12.9
2022-08-25T12:40:18.874Z,12.9
2022-08-25T12:42:19.928Z,16.1
2022-08-25T12:44:18.770Z,16.1
2022-08-25T12:46:18.900Z,16.1
2022-08-25T12:48:18.816Z,16.1
2022-08-25T12:50:18.775Z,16.1
2022-08-25T12:52:18.762Z,19.3
2022-08-25T12:54:19.009Z,19.3
2022-08-25T12:56:18.782Z,19.3
2022-08-25T12:58:18.784Z,12.9
2022-08-25T13:00:18.896Z,14.5
2022-08-25T13:02:19.031Z,14.5
2022-08-25T13:04:18.776Z,14.5
2022-08-25T13:06:18.815Z,14.5
2022-08-25T13:08:18.818Z,8.0
2022-08-25T13:10:18.962Z,9.7
2022-08-25T13:12:18.988Z,9.7
2022-08-25T13:14:19.079Z,9.7
2022-08-25T13:16:18.878Z,11.3
2022-08-25T13:18:18.796Z,11.3
2022-08-25T13:20:18.818Z,9.7
2022-08-25T13:22:18.824Z,9.7
2022-08-25T13:24:18.801Z,9.7
2022-08-25T13:26:18.828Z,11.3
2022-08-25T13:28:18.846Z,11.3
2022-08-25T13:30:18.842Z,11.3
2022-08-25T13:32:18.831Z,11.3
2022-08-25T13:34:21.978Z,9.7
2022-08-25T13:36:18.854Z,9.7
2022-08-25T13:38:18.860Z,11.3
2022-08-25T13:40:18.994Z,11.3
2022-08-25T13:42:18.844Z,14.5
2022-08-25T13:44:18.841Z,14.5
2022-08-25T13:46:18.927Z,12.9
2022-08-25T13:48:21.153Z,11.3
2022-08-25T13:50:18.840Z,11.3
2022-08-25T13:52:18.847Z,11.3
2022-08-25T13:54:18.852Z,8.0
2022-08-25T13:56:18.875Z,12.9
2022-08-25T13:58:24.841Z,12.9
2022-08-25T14:00:18.832Z,12.9
2022-08-25T14:02:19.606Z,12.9
2022-08-25T14:04:18.853Z,14.5
2022-08-25T14:06:18.876Z,14.5
2022-08-25T14:08:25.732Z,14.5
2022-08-25T14:10:18.878Z,9.7
2022-08-25T14:12:18.888Z,11.3
2022-08-25T14:14:18.850Z,11.3
2022-08-25T14:16:18.913Z,6.4
2022-08-25T14:18:18.888Z,8.0
2022-08-25T14:20:18.889Z,11.3
2022-08-25T14:22:19.117Z,11.3
2022-08-25T14:24:18.877Z,11.3
2022-08-25T14:26:19.021Z,11.3
2022-08-25T14:28:19.201Z,11.3
2022-08-25T14:30:19.036Z,11.3
2022-08-25T14:32:18.910Z,9.7
2022-08-25T14:34:18.992Z,6.4
2022-08-25T14:36:20.951Z,9.7
2022-08-25T14:38:18.942Z,9.7
2022-08-25T14:40:19.203Z,4.8
2022-08-25T14:42:18.924Z,6.4
2022-08-25T14:44:18.938Z,6.4
2022-08-25T14:46:18.984Z,9.7
2022-08-25T14:48:18.911Z,9.7
2022-08-25T14:50:20.008Z,9.7
2022-08-25T14:52:18.910Z,9.7
2022-08-25T14:54:16.410Z,9.7
2022-08-25T14:56:16.417Z,9.7
2022-08-25T14:58:16.418Z,8.0
2022-08-25T15:00:16.432Z,6.4
2022-08-25T15:02:16.416Z,12.9
2022-08-25T15:04:16.549Z,12.9
2022-08-25T15:06:16.445Z,12.9
2022-08-25T15:08:16.442Z,11.3
2022-08-25T15:10:16.461Z,11.3
2022-08-25T15:12:26.090Z,6.4
2022-08-25T15:14:17.373Z,6.4
2022-08-25T15:16:16.547Z,6.4
2022-08-25T15:18:16.439Z,6.4
2022-08-25T15:20:16.453Z,9.7
2022-08-25T15:22:16.446Z,9.7
2022-08-25T15:24:17.582Z,9.7
2022-08-25T15:26:16.453Z,12.9
2022-08-25T15:28:17.144Z,12.9
2022-08-25T15:30:16.576Z,8.0
2022-08-25T15:32:17.050Z,8.0
2022-08-25T15:34:17.778Z,9.7
2022-08-25T15:36:16.935Z,9.7
2022-08-25T15:38:16.867Z,9.7
2022-08-25T15:40:17.036Z,11.3
2022-08-25T15:42:16.898Z,11.3
2022-08-25T15:44:16.885Z,11.3
2022-08-25T15:46:16.541Z,3.2
2022-08-25T15:48:16.479Z,8.0
2022-08-25T15:50:16.472Z,8.0
2022-08-25T15:52:16.463Z,3.2
2022-08-25T15:54:16.485Z,6.4
2022-08-25T15:56:16.489Z,9.7
2022-08-25T15:58:16.476Z,9.7
2022-08-25T16:00:16.942Z,8.0
2022-08-25T16:02:16.615Z,9.7
2022-08-25T16:04:16.671Z,9.7
2022-08-25T16:06:16.581Z,8.0
2022-08-25T16:08:19.443Z,6.4
2022-08-25T16:10:16.648Z,6.4
2022-08-25T16:12:16.801Z,6.4
2022-08-25T16:14:16.726Z,6.4
2022-08-25T16:16:17.059Z,6.4
2022-08-25T16:18:16.789Z,8.0
2022-08-25T16:20:17.076Z,8.0
2022-08-25T16:22:16.838Z,6.4
2022-08-25T16:24:16.576Z,4.8
2022-08-25T16:26:17.022Z,6.4
2022-08-25T16:28:16.741Z,9.7
2022-08-25T16:30:17.580Z,9.7
2022-08-25T16:32:16.794Z,8.0
2022-08-25T16:34:16.537Z,8.0
2022-08-25T16:36:16.548Z,8.0
2022-08-25T16:38:16.613Z,8.0
2022-08-25T16:40:16.622Z,8.0
2022-08-25T16:42:16.555Z,8.0
2022-08-25T16:44:16.543Z,6.4
2022-08-25T16:46:16.617Z,8.0
2022-08-25T16:48:16.618Z,8.0
2022-08-25T16:50:16.680Z,8.0
2022-08-25T16:52:16.532Z,4.8
2022-08-25T16:54:21.998Z,4.8
2022-08-25T16:56:16.558Z,4.8
2022-08-25T16:58:16.559Z,4.8
2022-08-25T17:00:16.736Z,4.8
2022-08-25T17:02:16.800Z,4.8
2022-08-25T17:04:16.782Z,8.0
2022-08-25T17:06:16.552Z,8.0
2022-08-25T17:08:16.538Z,8.0
2022-08-25T17:10:16.596Z,4.8
2022-08-25T17:12:16.559Z,4.8
2022-08-25T17:14:17.954Z,4.8
2022-08-25T17:16:16.703Z,4.8
2022-08-25T17:18:16.575Z,4.8
2022-08-25T17:20:16.568Z,4.8
2022-08-25T17:22:16.571Z,4.8
2022-08-25T17:24:16.563Z,1.6
2022-08-25T17:26:16.573Z,3.2
2022-08-25T17:28:16.621Z,3.2
2022-08-25T17:30:16.595Z,3.2
2022-08-25T17:32:16.604Z,3.2
2022-08-25T17:34:16.910Z,3.2
2022-08-25T17:36:17.313Z,4.8
2022-08-25T17:38:16.556Z,4.8
2022-08-25T17:40:16.728Z,4.8
2022-08-25T17:42:16.581Z,3.2
2022-08-25T17:44:16.622Z,1.6
2022-08-25T17:46:16.659Z,1.6
2022-08-25T17:48:16.624Z,1.6
2022-08-25T17:50:16.608Z,1.6
2022-08-25T17:52:16.607Z,1.6
2022-08-25T17:54:16.718Z,3.2
2022-08-25T17:56:16.599Z,3.2
2022-08-25T17:58:16.608Z,3.2
2022-08-25T18:00:16.807Z,1.6
2022-08-25T18:02:16.885Z,3.2
2022-08-25T18:04:17.892Z,3.2
2022-08-25T18:06:16.648Z,3.2
2022-08-25T18:08:16.647Z,0.0
2022-08-25T18:10:16.624Z,0.0
2022-08-25T18:12:16.612Z,0.0
2022-08-25T18:14:16.814Z,0.0
2022-08-25T18:16:16.926Z,1.6
2022-08-25T18:18:16.638Z,1.6
2022-08-25T18:20:16.848Z,0.0
2022-08-25T18:22:16.660Z,0.0
2022-08-25T18:24:16.643Z,0.0
2022-08-25T18:26:16.685Z,0.0
2022-08-25T18:28:16.643Z,0.0
2022-08-25T18:30:16.688Z,0.0
2022-08-25T18:32:16.668Z,0.0
2022-08-25T18:34:16.886Z,0.0
2022-08-25T18:36:16.642Z,0.0
2022-08-25T18:38:21.697Z,0.0
2022-08-25T18:40:17.147Z,0.0
2022-08-25T18:42:16.970Z,0.0
2022-08-25T18:44:16.737Z,0.0
2022-08-25T18:46:16.829Z,0.0
2022-08-25T18:48:16.890Z,0.0
2022-08-25T18:50:16.673Z,0.0
2022-08-25T18:52:16.749Z,0.0
2022-08-25T18:54:22.768Z,0.0
2022-08-25T18:56:16.793Z,0.0
2022-08-25T18:58:16.682Z,0.0
2022-08-25T19:00:16.701Z,0.0
2022-08-25T19:02:16.718Z,0.0
2022-08-25T19:04:16.617Z,0.0
2022-08-25T19:06:16.660Z,0.0
2022-08-25T19:08:18.406Z,0.0
2022-08-25T19:10:16.674Z,0.0
2022-08-25T19:12:22.554Z,0.0
2022-08-25T19:14:16.953Z,0.0
2022-08-25T19:16:17.879Z,0.0
2022-08-25T19:18:17.295Z,0.0
2022-08-25T19:20:16.916Z,0.0
2022-08-25T19:22:40.231Z,0.0
2022-08-25T19:24:16.811Z,0.0
2022-08-25T19:26:17.333Z,0.0
2022-08-25T19:28:17.051Z,0.0
2022-08-25T19:30:16.673Z,0.0
2022-08-25T19:32:16.680Z,0.0
2022-08-25T19:34:16.864Z,0.0
2022-08-25T19:36:16.733Z,0.0
2022-08-25T19:38:33.553Z,0.0
2022-08-25T19:40:18.258Z,0.0
2022-08-25T19:42:35.154Z,0.0
2022-08-25T19:44:16.905Z,0.0
2022-08-25T19:46:16.934Z,0.0
2022-08-25T19:48:16.745Z,0.0
2022-08-25T19:50:17.104Z,0.0
2022-08-25T19:52:16.734Z,0.0
2022-08-25T19:54:16.759Z,0.0
2022-08-25T19:56:16.734Z,0.0
2022-08-25T19:58:16.726Z,0.0
2022-08-25T20:00:16.881Z,0.0
2022-08-25T20:02:16.771Z,0.0
2022-08-25T20:04:16.735Z,0.0
2022-08-25T20:06:16.726Z,0.0
2022-08-25T20:08:16.728Z,0.0
2022-08-25T20:10:16.693Z,0.0
2022-08-25T20:12:16.796Z,0.0
2022-08-25T20:14:16.731Z,0.0
2022-08-25T20:16:16.814Z,0.0
2022-08-25T20:18:16.734Z,0.0
2022-08-25T20:20:16.980Z,0.0
2022-08-25T20:22:17.489Z,0.0
2022-08-25T20:24:16.729Z,0.0
2022-08-25T20:26:16.765Z,0.0
2022-08-25T20:28:18.618Z,0.0
2022-08-25T20:30:16.809Z,0.0
2022-08-25T20:32:16.732Z,0.0
2022-08-25T20:34:16.720Z,0.0
2022-08-25T20:36:16.767Z,0.0
2022-08-25T20:38:16.802Z,0.0
2022-08-25T20:40:16.863Z,0.0
2022-08-25T20:42:16.747Z,0.0
2022-08-25T20:44:16.745Z,0.0
2022-08-25T20:46:16.860Z,0.0
2022-08-25T20:48:16.755Z,0.0
2022-08-25T20:50:16.788Z,0.0
2022-08-25T20:52:16.733Z,0.0
2022-08-25T20:54:16.770Z,0.0
2022-08-25T20:56:16.754Z,0.0
2022-08-25T20:58:16.763Z,0.0
2022-08-25T21:00:16.776Z,0.0
2022-08-25T21:02:19.283Z,0.0
2022-08-25T21:04:19.264Z,0.0
2022-08-25T21:06:19.273Z,0.0
2022-08-25T21:08:19.272Z,0.0
2022-08-25T21:10:19.274Z,0.0
2022-08-25T21:12:19.294Z,0.0
2022-08-25T21:14:19.317Z,0.0
2022-08-25T21:16:19.304Z,0.0
2022-08-25T21:18:19.292Z,0.0
2022-08-25T21:20:19.324Z,0.0
2022-08-25T21:22:19.285Z,0.0
2022-08-25T21:24:19.302Z,0.0
2022-08-25T21:26:19.296Z,0.0
2022-08-25T21:28:19.322Z,0.0
2022-08-25T21:30:19.308Z,0.0
2022-08-25T21:32:19.297Z,0.0
2022-08-25T21:34:19.315Z,0.0
2022-08-25T21:36:19.271Z,0.0
2022-08-25T21:38:19.303Z,0.0
2022-08-25T21:40:19.363Z,0.0
2022-08-25T21:42:19.321Z,0.0
2022-08-25T21:44:19.326Z,0.0
2022-08-25T21:46:19.434Z,0.0
2022-08-25T21:48:19.325Z,0.0
2022-08-25T21:50:19.380Z,0.0
2022-08-25T21:52:19.327Z,0.0
2022-08-25T21:54:19.338Z,0.0
2022-08-25T21:56:19.354Z,0.0
2022-08-25T21:58:19.385Z,0.0
2022-08-25T22:00:19.325Z,0.0
2022-08-25T22:02:22.341Z,0.0
2022-08-25T22:04:19.331Z,0.0
2022-08-25T22:06:19.322Z,0.0
2022-08-25T22:08:19.509Z,0.0
2022-08-25T22:10:19.340Z,0.0
2022-08-25T22:12:19.336Z,0.0
2022-08-25T22:14:19.339Z,0.0
2022-08-25T22:16:21.472Z,0.0
2022-08-25T22:18:19.579Z,0.0
2022-08-25T22:20:19.800Z,0.0
2022-08-25T22:22:21.052Z,0.0
2022-08-25T22:24:19.369Z,0.0
2022-08-25T22:26:22.114Z,0.0
2022-08-25T22:28:19.375Z,0.0
2022-08-25T22:30:19.329Z,0.0
2022-08-25T22:32:19.326Z,0.0
2022-08-25T22:34:19.343Z,0.0
2022-08-25T22:36:19.382Z,0.0
2022-08-25T22:38:19.379Z,0.0
2022-08-25T22:40:19.474Z,0.0
2022-08-25T22:42:19.372Z,0.0
2022-08-25T22:44:19.399Z,0.0
2022-08-25T22:46:19.465Z,0.0
2022-08-25T22:48:19.351Z,0.0
2022-08-25T22:50:19.384Z,0.0
2022-08-25T22:52:19.388Z,0.0
2022-08-25T22:54:19.393Z,0.0
2022-08-25T22:56:19.452Z,0.0
2022-08-25T22:58:19.393Z,0.0
2022-08-25T23:00:19.394Z,0.0
2022-08-25T23:02:19.422Z,0.0
2022-08-25T23:04:19.439Z,0.0
2022-08-25T23:06:24.638Z,0.0
2022-08-25T23:08:31.115Z,0.0
2022-08-25T23:10:19.439Z,0.0
2022-08-25T23:12:19.586Z,0.0
2022-08-25T23:14:19.417Z,0.0
2022-08-25T23:16:19.618Z,0.0
2022-08-25T23:18:19.468Z,0.0
2022-08-25T23:20:19.615Z,0.0
2022-08-25T23:22:19.506Z,0.0
2022-08-25T23:24:29.981Z,0.0
2022-08-25T23:26:19.445Z,0.0
2022-08-25T23:28:19.435Z,0.0
2022-08-25T23:30:19.423Z,0.0
2022-08-25T23:32:19.422Z,0.0
2022-08-25T23:34:19.461Z,0.0
2022-08-25T23:36:19.444Z,0.0
2022-08-25T23:38:19.446Z,0.0
2022-08-25T23:40:19.729Z,0.0
2022-08-25T23:42:19.481Z,0.0
2022-08-25T23:44:19.468Z,0.0
2022-08-25T23:46:19.461Z,0.0
2022-08-25T23:48:19.469Z,0.0
2022-08-25T23:50:19.449Z,0.0
2022-08-25T23:52:19.463Z,0.0
2022-08-25T23:54:19.476Z,0.0
2022-08-25T23:56:19.465Z,0.0
2022-08-25T23:58:19.441Z,0.0
